sensor_id;sensor_type;location;lat;lon;timestamp;P1;durP1;ratioP1;P2;durP2;ratioP2
735;SDS011;352;48.626;9.238;2022-11-15T09:15:33;12.13;;;10.47;;
735;SDS011;352;48.626;9.238;2022-11-15T09:18:00;15.07;;;11.97;;
735;SDS011;352;48.626;9.238;2022-11-15T09:20:27;10.73;;;9.60;;
735;SDS011;352;48.626;9.238;2022-11-15T09:22:54;12.03;;;8.77;;
735;SDS011;352;48.626;9.238;2022-11-15T09:25:21;13.13;;;8.93;;
735;SDS011;352;48.626;9.238;2022-11-15T09:27:47;11.70;;;8.50;;
735;SDS011;352;48.626;9.238;2022-11-15T09:30:14;9.73;;;7.70;;
735;SDS011;352;48.626;9.238;2022-11-15T09:32:43;9.00;;;8.10;;
735;SDS011;352;48.626;9.238;2022-11-15T09:35:10;9.13;;;8.23;;
735;SDS011;352;48.626;9.238;2022-11-15T09:37:36;9.20;;;7.50;;
735;SDS011;352;48.626;9.238;2022-11-15T09:40:04;7.70;;;6.93;;
735;SDS011;352;48.626;9.238;2022-11-15T09:42:35;8.67;;;7.93;;
735;SDS011;352;48.626;9.238;2022-11-15T09:45:17;9.70;;;8.67;;
735;SDS011;352;48.626;9.238;2022-11-15T09:47:53;8.60;;;7.80;;
735;SDS011;352;48.626;9.238;2022-11-15T09:50:36;9.40;;;7.53;;
735;SDS011;352;48.626;9.238;2022-11-15T09:53:08;7.50;;;6.87;;
735;SDS011;352;48.626;9.238;2022-11-15T09:55:39;7.37;;;6.57;;
735;SDS011;352;48.626;9.238;2022-11-15T09:58:15;9.33;;;7.10;;
735;SDS011;352;48.626;9.238;2022-11-15T10:00:47;8.07;;;7.27;;
735;SDS011;352;48.626;9.238;2022-11-15T10:03:19;7.63;;;6.93;;
735;SDS011;352;48.626;9.238;2022-11-15T10:05:53;8.23;;;7.50;;
735;SDS011;352;48.626;9.238;2022-11-15T10:08:28;8.90;;;7.87;;
735;SDS011;352;48.626;9.238;2022-11-15T10:11:06;12.97;;;7.90;;
735;SDS011;352;48.626;9.238;2022-11-15T10:13:36;10.50;;;7.57;;
735;SDS011;352;48.626;9.238;2022-11-15T10:16:09;8.50;;;7.67;;
735;SDS011;352;48.626;9.238;2022-11-15T10:18:47;7.33;;;6.27;;
735;SDS011;352;48.626;9.238;2022-11-15T10:21:23;8.47;;;7.67;;
735;SDS011;352;48.626;9.238;2022-11-15T10:24:10;9.20;;;7.60;;
735;SDS011;352;48.626;9.238;2022-11-15T10:26:45;8.50;;;7.70;;
735;SDS011;352;48.626;9.238;2022-11-15T10:29:17;10.67;;;7.90;;
735;SDS011;352;48.626;9.238;2022-11-15T10:31:45;8.80;;;6.80;;
735;SDS011;352;48.626;9.238;2022-11-15T14:08:27;8.77;;;7.83;;
735;SDS011;352;48.626;9.238;2022-11-15T14:14:19;9.07;;;7.50;;
735;SDS011;352;48.626;9.238;2022-11-15T14:16:48;9.87;;;8.17;;
735;SDS011;352;48.626;9.238;2022-11-15T14:28:28;8.23;;;7.43;;
735;SDS011;352;48.626;9.238;2022-11-15T15:04:35;10.47;;;9.07;;
735;SDS011;352;48.626;9.238;2022-11-15T15:07:37;9.63;;;8.63;;
735;SDS011;352;48.626;9.238;2022-11-15T15:12:56;10.97;;;9.90;;
735;SDS011;352;48.626;9.238;2022-11-15T15:29:37;12.33;;;8.50;;
735;SDS011;352;48.626;9.238;2022-11-15T15:32:15;9.03;;;7.73;;
735;SDS011;352;48.626;9.238;2022-11-15T15:44:58;9.73;;;8.60;;
735;SDS011;352;48.626;9.238;2022-11-15T15:51:34;9.60;;;8.70;;
735;SDS011;352;48.626;9.238;2022-11-15T15:56:46;10.20;;;9.20;;
735;SDS011;352;48.626;9.238;2022-11-15T15:59:15;9.97;;;9.00;;
735;SDS011;352;48.626;9.238;2022-11-15T16:08:07;11.07;;;10.13;;
735;SDS011;352;48.626;9.238;2022-11-15T16:10:40;12.67;;;10.50;;
735;SDS011;352;48.626;9.238;2022-11-15T16:13:09;14.50;;;11.20;;
735;SDS011;352;48.626;9.238;2022-11-15T16:17:08;14.93;;;11.00;;
735;SDS011;352;48.626;9.238;2022-11-15T16:19:00;11.73;;;10.60;;
735;SDS011;352;48.626;9.238;2022-11-15T16:21:33;10.87;;;9.87;;
735;SDS011;352;48.626;9.238;2022-11-15T16:29:25;10.87;;;9.77;;
735;SDS011;352;48.626;9.238;2022-11-15T16:32:05;12.33;;;10.93;;
735;SDS011;352;48.626;9.238;2022-11-15T16:34:34;15.23;;;12.27;;
735;SDS011;352;48.626;9.238;2022-11-15T16:37:00;15.33;;;13.00;;
735;SDS011;352;48.626;9.238;2022-11-15T16:39:27;22.70;;;14.00;;
735;SDS011;352;48.626;9.238;2022-11-15T16:41:56;20.27;;;14.10;;
735;SDS011;352;48.626;9.238;2022-11-15T16:44:23;21.10;;;13.63;;
735;SDS011;352;48.626;9.238;2022-11-15T16:46:53;24.83;;;15.03;;
735;SDS011;352;48.626;9.238;2022-11-15T16:49:27;21.70;;;19.37;;
735;SDS011;352;48.626;9.238;2022-11-15T16:51:55;22.13;;;17.10;;
735;SDS011;352;48.626;9.238;2022-11-15T16:54:22;28.23;;;23.40;;
735;SDS011;352;48.626;9.238;2022-11-15T16:56:48;31.17;;;27.87;;
735;SDS011;352;48.626;9.238;2022-11-15T16:59:16;26.50;;;19.50;;
735;SDS011;352;48.626;9.238;2022-11-15T17:01:45;23.80;;;19.07;;
735;SDS011;352;48.626;9.238;2022-11-15T17:04:15;20.37;;;15.50;;
735;SDS011;352;48.626;9.238;2022-11-15T17:06:43;17.93;;;14.73;;
735;SDS011;352;48.626;9.238;2022-11-15T17:09:13;13.10;;;11.70;;
735;SDS011;352;48.626;9.238;2022-11-15T17:11:41;15.37;;;12.37;;
735;SDS011;352;48.626;9.238;2022-11-15T17:14:08;17.13;;;13.07;;
735;SDS011;352;48.626;9.238;2022-11-15T17:16:35;15.30;;;13.70;;
735;SDS011;352;48.626;9.238;2022-11-15T17:19:06;19.80;;;14.80;;
735;SDS011;352;48.626;9.238;2022-11-15T17:21:36;14.70;;;13.20;;
735;SDS011;352;48.626;9.238;2022-11-15T17:24:03;13.87;;;12.47;;
735;SDS011;352;48.626;9.238;2022-11-15T17:26:32;13.77;;;11.40;;
735;SDS011;352;48.626;9.238;2022-11-15T17:28:59;18.17;;;12.37;;
735;SDS011;352;48.626;9.238;2022-11-15T17:31:26;17.83;;;14.67;;
735;SDS011;352;48.626;9.238;2022-11-15T17:33:54;19.03;;;15.50;;
735;SDS011;352;48.626;9.238;2022-11-15T17:36:21;20.10;;;15.60;;
735;SDS011;352;48.626;9.238;2022-11-15T17:38:48;20.27;;;16.20;;
735;SDS011;352;48.626;9.238;2022-11-15T17:41:16;17.87;;;15.50;;
735;SDS011;352;48.626;9.238;2022-11-15T17:44:03;16.97;;;15.40;;
735;SDS011;352;48.626;9.238;2022-11-15T17:46:35;16.33;;;14.60;;
735;SDS011;352;48.626;9.238;2022-11-15T17:49:02;21.70;;;16.77;;
735;SDS011;352;48.626;9.238;2022-11-15T18:16:48;18.93;;;17.10;;
735;SDS011;352;48.626;9.238;2022-11-15T18:19:24;22.97;;;19.90;;
735;SDS011;352;48.626;9.238;2022-11-15T18:21:50;20.63;;;18.53;;
735;SDS011;352;48.626;9.238;2022-11-15T18:24:25;23.00;;;20.70;;
735;SDS011;352;48.626;9.238;2022-11-15T18:26:54;22.13;;;19.33;;
735;SDS011;352;48.626;9.238;2022-11-15T18:29:21;21.10;;;18.97;;
735;SDS011;352;48.626;9.238;2022-11-15T18:31:50;21.83;;;19.53;;
735;SDS011;352;48.626;9.238;2022-11-15T18:34:20;22.37;;;20.07;;
735;SDS011;352;48.626;9.238;2022-11-15T18:36:48;22.70;;;20.33;;
735;SDS011;352;48.626;9.238;2022-11-15T18:39:15;26.90;;;22.90;;
735;SDS011;352;48.626;9.238;2022-11-15T18:41:42;32.03;;;28.50;;
735;SDS011;352;48.626;9.238;2022-11-15T18:44:10;25.53;;;22.93;;
735;SDS011;352;48.626;9.238;2022-11-15T18:46:37;19.93;;;18.13;;
735;SDS011;352;48.626;9.238;2022-11-15T18:49:09;29.10;;;20.00;;
735;SDS011;352;48.626;9.238;2022-11-15T18:51:37;30.10;;;22.43;;
735;SDS011;352;48.626;9.238;2022-11-15T18:54:05;26.57;;;19.50;;
735;SDS011;352;48.626;9.238;2022-11-15T18:56:34;17.30;;;15.37;;
735;SDS011;352;48.626;9.238;2022-11-15T18:59:01;13.30;;;12.00;;
735;SDS011;352;48.626;9.238;2022-11-15T19:01:29;10.23;;;9.33;;
735;SDS011;352;48.626;9.238;2022-11-15T19:03:58;9.97;;;8.97;;
735;SDS011;352;48.626;9.238;2022-11-15T19:06:29;9.80;;;8.90;;
735;SDS011;352;48.626;9.238;2022-11-15T19:08:57;8.60;;;7.90;;
735;SDS011;352;48.626;9.238;2022-11-15T19:11:25;9.30;;;8.50;;
735;SDS011;352;48.626;9.238;2022-11-15T19:13:57;9.53;;;8.53;;
735;SDS011;352;48.626;9.238;2022-11-15T19:16:57;7.70;;;7.00;;
735;SDS011;352;48.626;9.238;2022-11-15T19:19:31;12.40;;;11.07;;
735;SDS011;352;48.626;9.238;2022-11-15T19:22:00;14.87;;;11.60;;
735;SDS011;352;48.626;9.238;2022-11-15T19:24:32;9.00;;;8.13;;
735;SDS011;352;48.626;9.238;2022-11-15T19:26:59;8.20;;;7.43;;
735;SDS011;352;48.626;9.238;2022-11-15T19:29:47;8.30;;;7.50;;
735;SDS011;352;48.626;9.238;2022-11-15T19:32:20;8.10;;;7.40;;
735;SDS011;352;48.626;9.238;2022-11-15T19:34:50;8.77;;;7.87;;
735;SDS011;352;48.626;9.238;2022-11-15T19:37:51;7.47;;;6.87;;
735;SDS011;352;48.626;9.238;2022-11-15T19:40:31;8.53;;;7.70;;
735;SDS011;352;48.626;9.238;2022-11-15T19:43:28;7.50;;;6.80;;
735;SDS011;352;48.626;9.238;2022-11-15T19:47:01;8.57;;;7.50;;
735;SDS011;352;48.626;9.238;2022-11-15T19:49:27;8.93;;;7.53;;
735;SDS011;352;48.626;9.238;2022-11-15T19:52:16;9.60;;;8.70;;
735;SDS011;352;48.626;9.238;2022-11-15T19:54:58;11.63;;;9.60;;
735;SDS011;352;48.626;9.238;2022-11-15T19:57:55;9.40;;;8.60;;
735;SDS011;352;48.626;9.238;2022-11-15T20:00:30;7.90;;;7.20;;
735;SDS011;352;48.626;9.238;2022-11-15T20:03:02;9.60;;;8.43;;
735;SDS011;352;48.626;9.238;2022-11-15T20:05:40;9.50;;;8.57;;
735;SDS011;352;48.626;9.238;2022-11-15T20:08:34;9.90;;;9.07;;
735;SDS011;352;48.626;9.238;2022-11-15T20:11:18;10.57;;;8.53;;
735;SDS011;352;48.626;9.238;2022-11-15T20:14:01;14.27;;;12.77;;
735;SDS011;352;48.626;9.238;2022-11-15T20:16:37;18.93;;;17.13;;
735;SDS011;352;48.626;9.238;2022-11-15T20:19:14;12.60;;;11.43;;
735;SDS011;352;48.626;9.238;2022-11-15T20:21:47;10.63;;;9.73;;
735;SDS011;352;48.626;9.238;2022-11-15T20:24:26;10.40;;;9.30;;
735;SDS011;352;48.626;9.238;2022-11-15T20:27:08;10.00;;;9.10;;
735;SDS011;352;48.626;9.238;2022-11-15T20:32:28;16.50;;;14.77;;
735;SDS011;352;48.626;9.238;2022-11-15T20:35:11;15.43;;;13.83;;
735;SDS011;352;48.626;9.238;2022-11-15T20:37:42;16.87;;;13.70;;
735;SDS011;352;48.626;9.238;2022-11-15T20:40:50;15.17;;;13.77;;
735;SDS011;352;48.626;9.238;2022-11-15T20:43:38;12.00;;;10.80;;
735;SDS011;352;48.626;9.238;2022-11-15T20:46:10;9.33;;;8.50;;
735;SDS011;352;48.626;9.238;2022-11-15T20:48:46;10.67;;;8.83;;
735;SDS011;352;48.626;9.238;2022-11-15T20:51:32;17.87;;;12.73;;
735;SDS011;352;48.626;9.238;2022-11-15T20:54:11;13.00;;;11.70;;
735;SDS011;352;48.626;9.238;2022-11-15T20:56:46;14.33;;;11.30;;
735;SDS011;352;48.626;9.238;2022-11-15T20:59:27;13.03;;;11.00;;
735;SDS011;352;48.626;9.238;2022-11-15T21:02:01;12.23;;;11.13;;
735;SDS011;352;48.626;9.238;2022-11-15T21:04:29;10.70;;;9.70;;
735;SDS011;352;48.626;9.238;2022-11-15T21:07:01;10.67;;;9.73;;
735;SDS011;352;48.626;9.238;2022-11-15T21:18:49;10.53;;;9.43;;
735;SDS011;352;48.626;9.238;2022-11-15T21:21:57;10.30;;;9.23;;
735;SDS011;352;48.626;9.238;2022-11-15T21:24:24;9.90;;;8.17;;
735;SDS011;352;48.626;9.238;2022-11-15T21:26:51;13.00;;;8.50;;
735;SDS011;352;48.626;9.238;2022-11-15T21:29:19;8.60;;;7.77;;
735;SDS011;352;48.626;9.238;2022-11-15T21:31:46;9.33;;;8.60;;
735;SDS011;352;48.626;9.238;2022-11-15T21:34:15;10.30;;;9.30;;
735;SDS011;352;48.626;9.238;2022-11-15T21:36:43;9.13;;;8.23;;
735;SDS011;352;48.626;9.238;2022-11-15T21:39:10;14.73;;;10.17;;
735;SDS011;352;48.626;9.238;2022-11-15T21:41:37;10.83;;;9.83;;
735;SDS011;352;48.626;9.238;2022-11-15T21:44:03;12.03;;;9.60;;
735;SDS011;352;48.626;9.238;2022-11-15T21:46:31;11.40;;;10.23;;
735;SDS011;352;48.626;9.238;2022-11-15T21:48:58;10.93;;;9.60;;
735;SDS011;352;48.626;9.238;2022-11-15T21:51:26;9.63;;;8.73;;
735;SDS011;352;48.626;9.238;2022-11-15T21:53:53;10.90;;;7.80;;
735;SDS011;352;48.626;9.238;2022-11-15T21:56:21;8.97;;;8.17;;
735;SDS011;352;48.626;9.238;2022-11-15T21:58:48;9.90;;;8.90;;
735;SDS011;352;48.626;9.238;2022-11-15T22:01:14;16.50;;;12.10;;
735;SDS011;352;48.626;9.238;2022-11-15T22:03:59;11.00;;;9.80;;
735;SDS011;352;48.626;9.238;2022-11-15T22:06:27;8.37;;;7.60;;
735;SDS011;352;48.626;9.238;2022-11-15T22:08:54;8.03;;;7.23;;
735;SDS011;352;48.626;9.238;2022-11-15T22:11:20;7.50;;;6.73;;
735;SDS011;352;48.626;9.238;2022-11-15T22:13:47;10.90;;;8.33;;
735;SDS011;352;48.626;9.238;2022-11-15T22:16:14;13.33;;;8.23;;
735;SDS011;352;48.626;9.238;2022-11-15T22:18:41;9.53;;;8.20;;
735;SDS011;352;48.626;9.238;2022-11-15T22:24:04;7.57;;;6.83;;
735;SDS011;352;48.626;9.238;2022-11-15T22:26:32;6.83;;;5.67;;
735;SDS011;352;48.626;9.238;2022-11-15T22:28:59;8.53;;;7.50;;
735;SDS011;352;48.626;9.238;2022-11-15T22:31:26;9.63;;;7.13;;
735;SDS011;352;48.626;9.238;2022-11-15T22:33:52;8.27;;;7.57;;
735;SDS011;352;48.626;9.238;2022-11-15T22:36:19;9.50;;;7.83;;
735;SDS011;352;48.626;9.238;2022-11-15T22:38:47;8.17;;;7.40;;
735;SDS011;352;48.626;9.238;2022-11-15T22:41:14;7.47;;;6.67;;
735;SDS011;352;48.626;9.238;2022-11-15T22:43:41;7.57;;;6.83;;
735;SDS011;352;48.626;9.238;2022-11-15T22:46:08;6.50;;;5.90;;
735;SDS011;352;48.626;9.238;2022-11-15T22:48:36;7.20;;;6.53;;
735;SDS011;352;48.626;9.238;2022-11-15T22:51:03;7.70;;;7.00;;
735;SDS011;352;48.626;9.238;2022-11-15T22:53:31;11.00;;;6.40;;
735;SDS011;352;48.626;9.238;2022-11-15T22:55:59;7.93;;;7.13;;
735;SDS011;352;48.626;9.238;2022-11-15T22:58:28;8.20;;;7.50;;
735;SDS011;352;48.626;9.238;2022-11-15T23:00:58;7.40;;;6.80;;
735;SDS011;352;48.626;9.238;2022-11-15T23:03:26;10.53;;;7.97;;
735;SDS011;352;48.626;9.238;2022-11-15T23:05:54;9.03;;;7.53;;
735;SDS011;352;48.626;9.238;2022-11-15T23:08:25;7.13;;;6.43;;
735;SDS011;352;48.626;9.238;2022-11-15T23:10:52;6.83;;;6.23;;
735;SDS011;352;48.626;9.238;2022-11-15T23:13:37;7.07;;;6.37;;
735;SDS011;352;48.626;9.238;2022-11-15T23:16:05;7.60;;;6.90;;
735;SDS011;352;48.626;9.238;2022-11-15T23:18:58;6.60;;;5.80;;
735;SDS011;352;48.626;9.238;2022-11-15T23:21:26;7.40;;;6.03;;
735;SDS011;352;48.626;9.238;2022-11-15T23:24:13;7.83;;;6.27;;
735;SDS011;352;48.626;9.238;2022-11-15T23:26:40;6.20;;;5.70;;
735;SDS011;352;48.626;9.238;2022-11-15T23:29:10;7.70;;;5.77;;
735;SDS011;352;48.626;9.238;2022-11-15T23:31:38;6.50;;;5.87;;
735;SDS011;352;48.626;9.238;2022-11-15T23:34:23;6.50;;;6.00;;
735;SDS011;352;48.626;9.238;2022-11-15T23:36:50;6.20;;;5.60;;
735;SDS011;352;48.626;9.238;2022-11-15T23:39:17;7.00;;;6.30;;
735;SDS011;352;48.626;9.238;2022-11-15T23:41:44;7.47;;;6.30;;
735;SDS011;352;48.626;9.238;2022-11-15T23:44:13;11.87;;;6.33;;
735;SDS011;352;48.626;9.238;2022-11-15T23:46:39;6.87;;;6.17;;
735;SDS011;352;48.626;9.238;2022-11-15T23:49:06;6.67;;;6.07;;
735;SDS011;352;48.626;9.238;2022-11-15T23:51:33;5.20;;;4.80;;
735;SDS011;352;48.626;9.238;2022-11-15T23:54:00;6.77;;;5.93;;
735;SDS011;352;48.626;9.238;2022-11-15T23:56:27;5.60;;;5.10;;
735;SDS011;352;48.626;9.238;2022-11-15T23:58:54;6.30;;;5.10;;
